Time;durP1;ratioP1;P1;durP2;ratioP2;P2;SDS_P1;SDS_P2;PMS_P1;PMS_P2;Temp;Humidity;BMP_temperature;BMP_pressure;BME280_temperature;BME280_humidity;BME280_pressure;Samples;Min_cycle;Max_cycle;Signal;HPM_P1;HPM_P2
2022/12/03 00:02:18;;;;;;;27.15;14.60;;;;;;;2.25;78.25;102410.67;1761227;81;25788;-61
2022/12/03 00:04:45;;;;;;;23.57;13.13;;;;;;;2.27;78.39;102412.36;1753663;81;26224;-61
2022/12/03 00:07:12;;;;;;;26.17;13.53;;;;;;;2.21;78.20;102413.87;1754748;81;25625;-61
2022/12/03 00:09:39;;;;;;;24.10;11.88;;;;;;;2.20;78.26;102412.13;1762140;81;27447;-62
2022/12/03 00:12:06;;;;;;;26.37;11.38;;;;;;;2.21;78.36;102412.54;1733185;82;25751;-62
2022/12/03 00:14:33;;;;;;;22.48;11.10;;;;;;;2.17;78.06;102414.41;1733655;81;25790;-62
2022/12/03 00:16:59;;;;;;;22.73;11.63;;;;;;;2.17;78.16;102417.50;1760279;79;25793;-62
2022/12/03 00:19:26;;;;;;;24.43;11.05;;;;;;;2.22;78.23;102409.41;1752222;81;25702;-61
2022/12/03 00:21:53;;;;;;;22.52;11.88;;;;;;;2.25;78.09;102412.85;1753717;80;28200;-62
2022/12/03 00:24:20;;;;;;;24.75;11.25;;;;;;;2.25;78.00;102412.85;1757081;80;25663;-62
2022/12/03 00:26:46;;;;;;;23.27;12.20;;;;;;;2.26;77.84;102412.41;1737447;81;25709;-62
2022/12/03 00:29:14;;;;;;;20.05;10.95;;;;;;;2.21;77.40;102417.85;1754116;81;25897;-62
2022/12/03 00:31:41;;;;;;;24.35;10.98;;;;;;;2.19;77.31;102417.02;1731223;81;25553;-61
2022/12/03 00:34:08;;;;;;;23.42;11.30;;;;;;;2.16;77.11;102419.30;1728344;82;27643;-62
2022/12/03 00:36:35;;;;;;;22.35;11.00;;;;;;;2.14;77.05;102426.42;1725504;81;25721;-61
2022/12/03 00:39:02;;;;;;;25.32;10.85;;;;;;;2.09;76.55;102432.77;1724798;83;25854;-62
2022/12/03 00:41:29;;;;;;;21.00;10.53;;;;;;;1.98;76.53;102435.71;1764670;80;25800;-61
2022/12/03 00:43:56;;;;;;;21.33;10.18;;;;;;;1.90;76.46;102436.36;1758614;80;25766;-61
2022/12/03 00:46:26;;;;;;;21.00;10.53;;;;;;;1.83;76.45;102440.95;1762191;79;27445;-62
2022/12/03 00:48:53;;;;;;;19.82;9.75;;;;;;;1.78;76.77;102442.39;1757186;79;25783;-62
2022/12/03 00:51:20;;;;;;;19.55;10.32;;;;;;;1.82;77.21;102452.03;1767008;80;25957;-61
2022/12/03 00:53:47;;;;;;;22.60;10.25;;;;;;;1.86;77.49;102449.70;1771607;80;25964;-62
2022/12/03 00:56:14;;;;;;;21.95;10.20;;;;;;;1.93;77.58;102453.55;1770228;80;25657;-61
2022/12/03 00:58:41;;;;;;;22.60;10.45;;;;;;;1.97;77.46;102455.20;1772995;79;27577;-62
2022/12/03 01:01:08;;;;;;;25.43;10.30;;;;;;;2.02;77.57;102460.81;1769928;80;26177;-61
2022/12/03 01:03:35;;;;;;;23.05;10.53;;;;;;;2.09;77.70;102451.35;1781471;80;25738;-61
2022/12/03 01:06:02;;;;;;;19.92;10.20;;;;;;;2.13;77.64;102448.58;1771964;79;25802;-61
2022/12/03 01:08:29;;;;;;;27.40;10.80;;;;;;;2.14;77.45;102443.69;1767359;81;25735;-61
2022/12/03 01:10:55;;;;;;;20.00;9.83;;;;;;;2.11;77.02;102446.88;1770989;80;27459;-61
2022/12/03 01:13:22;;;;;;;26.60;10.53;;;;;;;2.00;76.90;102446.70;1772415;80;26165;-61
2022/12/03 01:15:49;;;;;;;20.25;10.00;;;;;;;1.97;76.95;102447.23;1773087;80;25834;-61
2022/12/03 01:18:15;;;;;;;18.52;9.03;;;;;;;1.96;76.95;102446.38;1781163;80;25798;-62
2022/12/03 01:20:42;;;;;;;19.73;10.68;;;;;;;1.97;76.91;102445.91;1765179;80;25875;-62
2022/12/03 01:23:09;;;;;;;26.75;10.82;;;;;;;1.94;76.70;102444.65;1748509;82;28247;-62
2022/12/03 01:25:36;;;;;;;21.95;10.78;;;;;;;1.87;76.72;102448.80;1758837;80;26194;-62
2022/12/03 01:28:03;;;;;;;25.90;10.72;;;;;;;1.79;76.64;102449.91;1777690;80;25496;-62
2022/12/03 01:32:15;;;;;;;21.30;9.60;;;;;;;1.72;76.66;102453.16;1767630;80;25788;-62
2022/12/03 01:32:58;;;;;;;16.70;9.30;;;;;;;1.65;76.61;102452.43;1741704;81;26127;-62
2022/12/03 01:35:25;;;;;;;21.20;9.80;;;;;;;1.55;76.67;102458.86;1768289;80;27338;-62
2022/12/03 01:37:52;;;;;;;20.48;10.50;;;;;;;1.45;76.71;102456.00;1766758;80;25615;-62
2022/12/03 01:40:20;;;;;;;20.62;10.35;;;;;;;1.40;76.97;102456.11;1767097;80;25809;-63
2022/12/03 01:42:47;;;;;;;23.25;10.18;;;;;;;1.42;77.15;102457.42;1767480;81;26478;-63
2022/12/03 01:45:21;;;;;;;20.60;9.75;;;;;;;1.40;77.09;102460.08;1736538;81;25858;-62
2022/12/03 01:47:48;;;;;;;21.85;10.28;;;;;;;1.43;77.20;102461.82;1762763;79;28467;-62
2022/12/03 01:50:31;;;;;;;22.32;9.83;;;;;;;1.46;77.20;102463.95;1752813;80;25794;-62
2022/12/03 01:53:01;;;;;;;24.45;10.95;;;;;;;1.48;77.25;102462.10;1763746;80;25776;-62
2022/12/03 01:55:28;;;;;;;21.12;9.88;;;;;;;1.50;76.99;102466.06;1752414;81;26625;-62
2022/12/03 01:57:59;;;;;;;18.67;9.13;;;;;;;1.49;77.07;102461.20;1762399;80;25688;-62
2022/12/03 02:00:27;;;;;;;24.85;10.60;;;;;;;1.52;77.09;102462.93;1750233;80;27309;-62
2022/12/03 02:03:02;;;;;;;20.97;10.10;;;;;;;1.55;77.09;102469.47;1774196;80;25786;-62
2022/12/03 02:05:31;;;;;;;24.20;9.98;;;;;;;1.57;77.00;102472.97;1770947;80;25790;-62
2022/12/03 02:07:59;;;;;;;16.65;9.30;;;;;;;1.61;77.32;102471.11;1733182;82;25707;-62
2022/12/03 02:10:30;;;;;;;24.25;10.40;;;;;;;1.64;77.27;102473.23;1746944;82;25776;-62
2022/12/03 02:13:07;;;;;;;26.12;9.23;;;;;;;1.66;77.21;102470.56;1775087;80;27727;-62
2022/12/03 02:15:35;;;;;;;25.25;9.90;;;;;;;1.67;77.19;102469.63;1771868;80;25795;-62
2022/12/03 02:18:02;;;;;;;20.02;9.55;;;;;;;1.63;76.79;102470.16;1762869;81;25752;-62
2022/12/03 02:20:32;;;;;;;20.40;9.58;;;;;;;1.58;76.84;102474.72;1761738;80;25831;-62
2022/12/03 02:23:10;;;;;;;21.02;9.60;;;;;;;1.55;76.91;102476.10;1761096;80;25910;-62
2022/12/03 02:25:38;;;;;;;20.85;9.05;;;;;;;1.54;77.01;102475.24;1760146;80;27503;-61
2022/12/03 02:28:07;;;;;;;23.32;10.30;;;;;;;1.59;77.04;102479.12;1760117;81;25755;-61
2022/12/03 02:30:35;;;;;;;25.85;10.45;;;;;;;1.61;77.18;102473.77;1752923;80;25992;-61
2022/12/03 02:33:02;;;;;;;22.02;10.55;;;;;;;1.67;77.28;102473.17;1754812;80;26671;-62
2022/12/03 02:35:35;;;;;;;22.62;11.25;;;;;;;1.63;76.92;102474.14;1754977;80;25755;-62
2022/12/03 02:38:19;;;;;;;23.83;10.10;;;;;;;1.60;76.99;102472.02;1743843;82;27655;-62
2022/12/03 02:40:49;;;;;;;27.32;10.48;;;;;;;1.59;76.95;102468.94;1762728;80;26494;-62
2022/12/03 02:43:19;;;;;;;21.40;10.20;;;;;;;1.57;76.90;102470.31;1762677;80;25830;-61
2022/12/03 02:45:50;;;;;;;16.27;9.38;;;;;;;1.52;76.77;102475.73;1759771;80;25866;-62
2022/12/03 02:48:28;;;;;;;19.67;8.65;;;;;;;1.53;77.01;102477.91;1764767;80;25731;-62
2022/12/03 02:51:02;;;;;;;18.40;9.18;;;;;;;1.57;77.14;102474.30;1767206;80;28555;-63
2022/12/03 02:53:37;;;;;;;24.07;9.38;;;;;;;1.58;76.80;102476.48;1768101;79;25755;-61
2022/12/03 02:56:06;;;;;;;26.90;9.98;;;;;;;1.54;76.93;102477.00;1775538;80;25771;-61
2022/12/03 02:58:33;;;;;;;24.37;9.75;;;;;;;1.57;76.89;102482.25;1773534;80;26506;-62
2022/12/03 03:01:03;;;;;;;30.05;11.43;;;;;;;1.61;76.87;102477.74;1772048;80;25804;-61
2022/12/03 03:03:32;;;;;;;21.68;9.83;;;;;;;1.55;76.48;102480.97;1764439;80;28275;-62
2022/12/03 03:06:01;;;;;;;21.27;9.00;;;;;;;1.55;76.66;102486.28;1762113;80;25747;-61
2022/12/03 03:08:30;;;;;;;19.77;8.70;;;;;;;1.58;76.64;102494.61;1743740;80;25838;-61
2022/12/03 03:11:00;;;;;;;17.20;9.15;;;;;;;1.56;76.46;102495.09;1772781;79;26016;-62
2022/12/03 03:13:29;;;;;;;19.55;9.50;;;;;;;1.55;76.48;102496.89;1768682;80;25770;-62
2022/12/03 03:16:05;;;;;;;18.67;9.60;;;;;;;1.54;76.57;102491.16;1754828;80;25990;-62
2022/12/03 03:18:35;;;;;;;22.70;10.20;;;;;;;1.59;76.70;102496.36;1727537;82;25819;-62
2022/12/03 03:21:03;;;;;;;23.67;9.35;;;;;;;1.63;76.70;102495.83;1749443;80;25806;-62
2022/12/03 03:23:30;;;;;;;22.17;9.68;;;;;;;1.65;76.72;102488.25;1761371;80;25880;-62
2022/12/03 03:26:07;;;;;;;16.40;9.33;;;;;;;1.62;76.49;102496.27;1765692;80;26094;-62
2022/12/03 03:28:46;;;;;;;23.98;11.45;;;;;;;1.64;76.38;102492.27;1761761;81;27446;-62
2022/12/03 03:31:13;;;;;;;18.80;10.08;;;;;;;1.65;76.37;102492.23;1760143;80;25881;-62
2022/12/03 03:33:45;;;;;;;21.17;11.53;;;;;;;1.63;76.44;102482.56;1754056;79;25665;-63
2022/12/03 03:36:15;;;;;;;19.65;9.28;;;;;;;1.62;76.25;102485.66;1720782;82;25740;-63
2022/12/03 03:38:46;;;;;;;22.73;9.58;;;;;;;1.56;76.23;102486.70;1762665;80;25746;-62
2022/12/03 03:41:16;;;;;;;23.45;10.50;;;;;;;1.52;76.24;102482.83;1765106;80;27443;-63
2022/12/03 03:43:46;;;;;;;28.10;11.75;;;;;;;1.52;76.24;102487.66;1761621;81;25794;-62
2022/12/03 03:46:14;;;;;;;30.17;13.75;;;;;;;1.56;76.45;102491.11;1759086;80;25786;-62
2022/12/03 03:48:43;;;;;;;22.30;10.88;;;;;;;1.59;76.57;102488.41;1743000;82;25876;-62
2022/12/03 03:51:11;;;;;;;26.33;10.80;;;;;;;1.65;76.60;102492.23;1751959;80;25815;-62
2022/12/03 03:53:46;;;;;;;23.65;11.00;;;;;;;1.69;76.30;102495.67;1770907;79;27438;-62
2022/12/03 03:56:19;;;;;;;17.87;9.30;;;;;;;1.71;76.37;102494.72;1761647;80;43975;-62
2022/12/03 03:58:46;;;;;;;25.37;9.58;;;;;;;1.77;76.08;102496.36;1762190;80;25818;-61
2022/12/03 04:01:14;;;;;;;22.15;10.20;;;;;;;1.79;75.96;102501.66;1760337;80;25745;-62
2022/12/03 04:03:41;;;;;;;25.30;9.18;;;;;;;1.78;75.68;102495.93;1766892;80;26262;-61
2022/12/03 04:06:09;;;;;;;18.37;9.33;;;;;;;1.72;75.67;102505.77;1765228;80;27418;-63
2022/12/03 04:08:35;;;;;;;19.45;10.03;;;;;;;1.71;75.91;102502.69;1771745;80;25988;-61
2022/12/03 04:13:52;;;;;;;25.50;9.23;;;;;;;1.72;75.76;102507.55;1744657;82;25794;-62
2022/12/03 04:16:19;;;;;;;22.60;9.65;;;;;;;1.67;75.65;102507.66;1758045;79;25753;-61
2022/12/03 04:18:47;;;;;;;30.88;11.03;;;;;;;1.66;75.68;102505.91;1767248;80;27645;-62
2022/12/03 04:24:11;;;;;;;21.95;9.65;;;;;;;1.66;76.07;102505.05;1766399;80;25767;-62
2022/12/03 04:29:24;;;;;;;19.70;10.55;;;;;;;1.69;76.24;102508.94;1770923;80;25687;-62
2022/12/03 04:37:24;;;;;;;22.98;10.28;;;;;;;1.62;76.29;102520.14;1765799;80;25446;-62
2022/12/03 04:39:51;;;;;;;27.58;11.33;;;;;;;1.58;76.18;102518.92;1766356;80;25917;-63
2022/12/03 04:42:21;;;;;;;28.07;10.70;;;;;;;1.55;76.15;102520.76;1764649;80;25703;-63
2022/12/03 04:44:53;;;;;;;25.62;10.75;;;;;;;1.54;76.24;102529.62;1761801;80;27458;-63
2022/12/03 04:47:21;;;;;;;24.07;10.55;;;;;;;1.56;76.27;102527.81;1748136;80;32879;-63
2022/12/03 04:49:50;;;;;;;24.67;13.20;;;;;;;1.56;76.11;102529.58;1777885;80;25680;-63
2022/12/03 04:52:19;;;;;;;23.87;10.50;;;;;;;1.57;76.31;102531.33;1790279;78;25790;-62
2022/12/03 04:54:47;;;;;;;24.00;11.45;;;;;;;1.62;76.42;102532.55;1805527;77;25750;-62
2022/12/03 04:57:13;;;;;;;24.80;11.68;;;;;;;1.67;76.46;102537.28;1790626;80;27444;-62
2022/12/03 04:59:41;;;;;;;24.63;12.30;;;;;;;1.64;75.97;102534.25;1790330;80;25942;-62
2022/12/03 05:02:09;;;;;;;30.72;12.37;;;;;;;1.61;76.08;102545.39;1773943;80;25793;-62
2022/12/03 05:04:36;;;;;;;26.30;11.97;;;;;;;1.65;76.25;102545.75;1790535;80;26651;-61
2022/12/03 05:07:03;;;;;;;24.20;13.28;;;;;;;1.64;76.12;102550.17;1791000;80;25921;-61
2022/12/03 05:09:32;;;;;;;26.90;12.35;;;;;;;1.65;76.08;102550.59;1790390;80;27527;-61
2022/12/03 05:12:03;;;;;;;24.82;13.25;;;;;;;1.68;76.38;102540.36;1789067;80;25654;-62
2022/12/03 05:14:29;;;;;;;27.20;14.30;;;;;;;1.71;76.24;102548.27;1790854;80;25671;-62
2022/12/03 05:16:56;;;;;;;32.17;14.33;;;;;;;1.71;76.14;102548.27;1791124;80;26672;-62
2022/12/03 05:20:40;;;;;;;26.35;13.75;;;;;;;1.72;76.23;102546.03;1790577;80;25710;-62
2022/12/03 05:21:51;;;;;;;31.60;14.63;;;;;;;1.72;76.16;102541.58;1786412;80;27592;-62
2022/12/03 05:24:19;;;;;;;33.48;14.70;;;;;;;1.76;76.10;102549.48;1789809;80;25430;-62
2022/12/03 05:26:46;;;;;;;31.93;13.38;;;;;;;1.79;76.10;102552.94;1764440;80;25689;-62
2022/12/03 05:29:13;;;;;;;30.10;12.98;;;;;;;1.83;76.06;102563.02;1756896;81;25897;-62
2022/12/03 05:31:46;;;;;;;32.67;13.88;;;;;;;1.86;76.17;102558.98;1749248;80;25812;-62
2022/12/03 05:34:12;;;;;;;27.15;12.68;;;;;;;1.85;75.73;102562.07;1761571;80;27500;-61
2022/12/03 05:36:43;;;;;;;30.52;13.30;;;;;;;1.85;75.67;102564.73;1762169;80;25806;-61
2022/12/03 05:39:10;;;;;;;34.13;14.10;;;;;;;1.82;75.34;102574.11;1784462;80;25726;-61
2022/12/03 05:44:21;;;;;;;32.50;14.47;;;;;;;1.63;74.94;102583.38;1771586;78;25723;-61
2022/12/03 05:46:48;;;;;;;40.92;16.30;;;;;;;1.60;75.04;102581.67;1792697;80;26975;-62
2022/12/03 05:49:15;;;;;;;33.10;16.25;;;;;;;1.54;75.01;102586.66;1785303;80;26000;-62
2022/12/03 05:51:43;;;;;;;37.88;18.30;;;;;;;1.51;75.25;102588.03;1753131;81;25736;-62
2022/12/03 05:54:10;;;;;;;37.85;17.30;;;;;;;1.51;75.29;102594.66;1764808;80;25825;-62
2022/12/03 05:56:40;;;;;;;42.45;17.05;;;;;;;1.48;75.46;102592.53;1761145;80;25850;-62
2022/12/03 05:59:06;;;;;;;42.75;16.30;;;;;;;1.54;75.72;102594.61;1748585;80;27474;-62
2022/12/03 06:01:33;;;;;;;33.15;14.65;;;;;;;1.61;75.93;102594.47;1766838;80;25978;-62
2022/12/03 06:04:02;;;;;;;25.40;13.20;;;;;;;1.69;76.06;102601.80;1764079;80;25722;-62
2022/12/03 06:06:29;;;;;;;26.87;12.33;;;;;;;1.74;75.97;102600.38;1771789;80;26077;-62
2022/12/03 06:08:56;;;;;;;22.98;10.90;;;;;;;1.80;76.11;102598.91;1767349;79;25752;-62
2022/12/03 06:11:23;;;;;;;25.72;10.03;;;;;;;1.87;76.11;102604.05;1773969;80;27452;-62
2022/12/03 06:13:49;;;;;;;28.17;11.75;;;;;;;1.90;75.98;102600.45;1775386;80;25767;-61
2022/12/03 06:16:16;;;;;;;30.27;10.88;;;;;;;1.91;75.74;102599.55;1743667;80;25678;-62
2022/12/03 06:18:43;;;;;;;22.42;11.80;;;;;;;1.94;75.79;102599.48;1746894;80;25801;-62
2022/12/03 06:21:09;;;;;;;28.23;12.60;;;;;;;1.95;75.71;102605.22;1775025;80;25768;-62
2022/12/03 06:23:43;;;;;;;24.85;13.15;;;;;;;1.94;75.83;102610.54;1775445;80;27484;-62
2022/12/03 06:26:05;;;;;;;32.60;13.15;;;;;;;1.96;76.05;102612.71;1766959;80;25783;-61
2022/12/03 06:28:32;;;;;;;34.25;15.05;;;;;;;2.00;76.05;102623.23;1766772;80;25770;-62
2022/12/03 06:30:59;;;;;;;25.65;13.22;;;;;;;2.04;75.95;102620.05;1766187;80;25911;-61
2022/12/03 06:33:26;;;;;;;34.92;15.15;;;;;;;2.05;75.66;102623.13;1768221;79;25784;-62
2022/12/03 06:35:53;;;;;;;33.60;15.32;;;;;;;2.04;75.53;102622.70;1746594;80;27633;-62
2022/12/03 06:38:21;;;;;;;34.55;16.37;;;;;;;2.02;75.31;102623.18;1766089;80;26352;-62
2022/12/03 06:40:48;;;;;;;33.10;15.32;;;;;;;1.98;75.18;102619.73;1762340;80;25849;-62
2022/12/03 06:43:15;;;;;;;35.52;14.73;;;;;;;1.95;75.03;102617.16;1761828;80;25735;-62
2022/12/03 06:45:42;;;;;;;33.83;14.70;;;;;;;1.92;74.85;102623.00;1763423;80;25759;-61
2022/12/03 06:48:09;;;;;;;30.60;13.00;;;;;;;1.87;74.87;102622.63;1748639;80;27467;-61
2022/12/03 06:50:35;;;;;;;27.02;13.85;;;;;;;1.85;74.95;102629.75;1749548;80;25899;-61
2022/12/03 06:53:02;;;;;;;29.95;13.05;;;;;;;1.85;75.05;102629.75;1746685;80;25739;-61
2022/12/03 06:55:29;;;;;;;24.20;11.05;;;;;;;1.88;75.10;102629.69;1763776;80;26506;-62
2022/12/03 06:57:56;;;;;;;23.00;11.00;;;;;;;1.92;75.10;102630.96;1744123;80;27308;-61
2022/12/03 07:00:24;;;;;;;29.18;11.53;;;;;;;1.90;74.61;102628.32;1757310;80;27514;-61
2022/12/03 07:02:51;;;;;;;21.55;10.35;;;;;;;1.91;74.73;102630.53;1760821;80;25513;-61
2022/12/03 07:05:18;;;;;;;23.40;9.85;;;;;;;1.92;74.52;102630.96;1767488;80;25814;-61
2022/12/03 07:07:50;;;;;;;22.62;11.05;;;;;;;1.90;74.26;102633.63;1758991;81;25863;-61
2022/12/03 07:10:14;;;;;;;26.70;12.10;;;;;;;1.89;74.16;102639.84;1767455;80;26004;-61
2022/12/03 07:12:44;;;;;;;18.98;10.78;;;;;;;1.90;74.29;102634.09;1760568;80;27499;-62
2022/12/03 07:15:12;;;;;;;23.65;10.65;;;;;;;1.86;73.79;102639.46;1747970;80;27235;-61
2022/12/03 07:17:39;;;;;;;21.10;11.08;;;;;;;1.81;73.84;102636.05;1759037;81;25723;-62
2022/12/03 07:20:07;;;;;;;25.62;13.38;;;;;;;1.77;73.81;102639.66;1759085;80;26860;-63
2022/12/03 07:22:34;;;;;;;30.52;12.93;;;;;;;1.78;73.63;102640.55;1758891;80;25844;-62
2022/12/03 07:25:02;;;;;;;36.42;15.65;;;;;;;1.75;73.13;102641.47;1759124;80;27546;-61
2022/12/03 07:27:28;;;;;;;25.00;12.18;;;;;;;1.75;73.28;102632.64;1765166;80;25763;-62
2022/12/03 07:29:55;;;;;;;24.95;11.68;;;;;;;1.78;73.37;102635.25;1775158;80;25853;-61
2022/12/03 07:32:23;;;;;;;21.15;11.88;;;;;;;1.71;72.94;102635.82;1766410;80;25836;-62
2022/12/03 07:34:49;;;;;;;23.87;12.10;;;;;;;1.65;73.10;102641.27;1756798;80;25795;-62
2022/12/03 07:37:16;;;;;;;23.12;11.53;;;;;;;1.60;72.87;102639.14;1761439;80;27529;-62
2022/12/03 07:39:42;;;;;;;23.70;11.57;;;;;;;1.60;72.93;102638.71;1775599;80;25865;-62
2022/12/03 07:42:09;;;;;;;24.30;11.33;;;;;;;1.57;72.80;102633.45;1763181;80;25751;-62
2022/12/03 07:44:36;;;;;;;19.98;9.75;;;;;;;1.51;72.44;102639.76;1764783;80;25749;-61
2022/12/03 07:47:02;;;;;;;22.20;10.45;;;;;;;1.52;72.54;102637.53;1772851;80;25723;-61
2022/12/03 07:49:30;;;;;;;23.92;12.60;;;;;;;1.53;72.57;102643.70;1773271;79;28169;-62
2022/12/03 07:51:56;;;;;;;27.15;12.90;;;;;;;1.54;72.46;102642.80;1780308;80;25830;-62
2022/12/03 07:54:24;;;;;;;25.97;13.30;;;;;;;1.55;72.67;102641.45;1775291;80;25722;-63
2022/12/03 07:56:51;;;;;;;19.00;11.10;;;;;;;1.61;72.56;102643.11;1785226;78;26609;-63
2022/12/03 07:59:18;;;;;;;22.58;10.13;;;;;;;1.61;72.39;102644.88;1784953;78;25706;-63
2022/12/03 08:01:45;;;;;;;23.75;10.15;;;;;;;1.61;72.23;102644.88;1782158;80;27484;-63
2022/12/03 08:04:13;;;;;;;17.25;9.60;;;;;;;1.58;72.01;102642.28;1771483;80;25799;-61
2022/12/03 08:06:41;;;;;;;20.80;9.48;;;;;;;1.57;72.21;102645.39;1767174;80;25846;-61
2022/12/03 08:09:07;;;;;;;19.20;10.35;;;;;;;1.60;71.81;102652.41;1771718;80;25846;-64
2022/12/03 08:11:34;;;;;;;24.75;12.18;;;;;;;1.59;71.74;102659.51;1759240;80;25978;-62
2022/12/03 08:14:06;;;;;;;22.70;10.82;;;;;;;1.63;71.93;102662.97;1763130;80;27577;-63
2022/12/03 08:16:38;;;;;;;35.45;10.82;;;;;;;1.64;71.99;102666.91;1765424;80;25828;-62
2022/12/03 08:19:21;;;;;;;;;;;;;;;;;;;;;
2022/12/03 08:21:48;;;;;;;29.50;13.08;;;;;;;1.72;71.86;102663.64;1760373;80;25759;-61
2022/12/03 08:24:18;;;;;;;28.55;14.45;;;;;;;1.71;71.38;102663.68;1764475;80;25791;-63
2022/12/03 08:26:49;;;;;;;24.63;14.00;;;;;;;1.62;71.45;102673.16;1760800;80;27475;-62
2022/12/03 08:29:18;;;;;;;20.35;11.90;;;;;;;1.64;71.67;102666.05;1775244;80;25513;-62
2022/12/03 08:31:55;;;;;;;23.38;12.15;;;;;;;1.66;71.64;102665.57;1768280;80;25752;-62
2022/12/03 08:34:30;;;;;;;19.27;10.90;;;;;;;1.70;71.90;102663.25;1755420;80;25902;-60
2022/12/03 08:37:00;;;;;;;;;;;;;;;1.75;71.54;102667.14;1764771;80;25704;-61
2022/12/03 08:39:38;;;;;;;21.35;10.00;;;;;;;1.78;71.51;102667.95;1761167;80;27529;-62
2022/12/03 08:45:34;;;;;;;19.27;10.53;;;;;;;1.81;71.16;102672.31;1759065;80;26651;-63
2022/12/03 08:48:31;;;;;;;25.82;10.50;;;;;;;1.75;70.86;102664.48;1747232;80;25648;-62
2022/12/03 08:51:18;;;;;;;24.80;9.98;;;;;;;1.76;70.74;102656.95;1767919;80;25794;-63
2022/12/03 08:53:49;;;;;;;27.32;12.00;;;;;;;1.78;70.75;102667.95;1766429;80;27622;-62
2022/12/03 08:56:26;;;;;;;21.10;12.07;;;;;;;1.81;70.88;102668.33;1771466;79;25772;-62
2022/12/03 08:59:03;;;;;;;28.05;12.18;;;;;;;1.83;70.86;102664.76;1760800;80;25455;-61
2022/12/03 09:01:43;;;;;;;23.70;11.83;;;;;;;1.86;70.68;102662.02;1762231;80;25932;-62
2022/12/03 09:04:27;;;;;;;35.52;12.35;;;;;;;1.90;70.38;102664.15;1774934;80;25743;-62
2022/12/03 09:06:54;;;;;;;24.60;11.93;;;;;;;1.91;70.18;102659.27;1772136;80;27535;-62
2022/12/03 09:09:26;;;;;;;25.48;13.38;;;;;;;1.92;70.41;102658.36;1776750;79;26121;-62
2022/12/03 09:11:54;;;;;;;21.37;11.45;;;;;;;1.97;70.40;102664.89;1770824;80;25712;-62
2022/12/03 09:14:22;;;;;;;27.48;12.45;;;;;;;1.95;70.18;102663.61;1762815;79;25810;-62
2022/12/03 09:16:54;;;;;;;29.55;11.33;;;;;;;1.96;70.24;102668.02;1776489;80;25771;-62
2022/12/03 09:19:22;;;;;;;24.52;12.58;;;;;;;1.97;70.15;102663.10;1770961;79;27486;-64
2022/12/03 09:21:49;;;;;;;35.23;14.95;;;;;;;2.01;70.51;102664.80;1773419;80;25841;-63
2022/12/03 09:24:23;;;;;;;22.98;12.98;;;;;;;1.97;70.27;102664.43;1771128;79;25796;-62
2022/12/03 09:26:48;;;;;;;23.18;12.90;;;;;;;1.95;70.21;102664.94;1772777;80;26153;-63
2022/12/03 09:29:21;;;;;;;27.32;12.13;;;;;;;1.91;69.92;102665.90;1771346;79;25954;-63
2022/12/03 09:31:49;;;;;;;22.10;12.03;;;;;;;1.86;70.09;102667.80;1773829;79;27551;-62
2022/12/03 09:34:16;;;;;;;25.12;10.90;;;;;;;1.92;70.56;102666.33;1766097;80;25793;-62
2022/12/03 09:36:43;;;;;;;29.57;11.08;;;;;;;1.97;70.47;102661.78;1775576;80;25568;-62
2022/12/03 09:39:09;;;;;;;25.90;10.60;;;;;;;1.96;70.41;102665.37;1766918;80;25944;-62
2022/12/03 09:41:36;;;;;;;30.65;13.65;;;;;;;2.01;70.33;102658.16;1762692;80;26094;-62
2022/12/03 09:44:03;;;;;;;34.65;16.90;;;;;;;2.04;70.51;102665.17;1766566;79;27530;-62
2022/12/03 09:46:30;;;;;;;32.65;12.55;;;;;;;2.14;70.80;102665.39;1769146;80;25770;-61
2022/12/03 09:48:57;;;;;;;27.62;10.48;;;;;;;2.25;70.81;102661.63;1768196;80;25772;-62
2022/12/03 09:51:29;;;;;;;29.23;12.47;;;;;;;2.30;70.04;102661.05;1772985;80;25786;-62
2022/12/03 09:53:59;;;;;;;23.12;12.13;;;;;;;2.31;70.17;102663.69;1767522;80;25735;-61
2022/12/03 09:56:26;;;;;;;18.73;9.48;;;;;;;2.35;69.79;102653.86;1778628;80;27638;-61
2022/12/03 09:58:53;;;;;;;20.43;10.03;;;;;;;2.35;69.60;102654.72;1762253;81;25967;-62
2022/12/03 10:01:22;;;;;;;14.13;8.10;;;;;;;2.39;69.15;102651.53;1764434;80;25782;-63
2022/12/03 10:03:54;;;;;;;16.48;9.13;;;;;;;2.37;68.58;102644.08;1775348;80;25869;-62
2022/12/03 10:06:22;;;;;;;16.97;8.33;;;;;;;2.43;69.06;102650.56;1773783;80;25761;-63
2022/12/03 10:08:53;;;;;;;15.50;8.73;;;;;;;2.49;68.71;102642.91;1769732;80;27323;-61
2022/12/03 10:11:24;;;;;;;15.72;7.22;;;;;;;2.53;68.36;102639.72;1760603;81;25795;-62
2022/12/03 10:13:52;;;;;;;19.52;8.70;;;;;;;2.56;67.56;102645.83;1763039;80;25910;-63
2022/12/03 10:16:19;;;;;;;12.98;8.05;;;;;;;2.56;67.96;102641.84;1765057;80;25814;-62
2022/12/03 10:18:51;;;;;;;13.38;8.48;;;;;;;2.59;67.45;102647.09;1766556;80;26081;-62
2022/12/03 10:21:37;;;;;;;18.90;8.93;;;;;;;2.60;67.27;102643.48;1775501;80;27580;-62
2022/12/03 10:24:27;;;;;;;17.77;8.85;;;;;;;2.60;67.30;102647.95;1771555;80;25727;-62
2022/12/03 10:26:59;;;;;;;16.25;9.28;;;;;;;2.62;66.22;102650.12;1761430;80;25790;-61
2022/12/03 10:29:32;;;;;;;16.10;8.78;;;;;;;2.60;66.00;102644.81;1776831;79;25856;-61
2022/12/03 10:32:04;;;;;;;17.35;8.33;;;;;;;2.62;65.17;102644.80;1772126;80;25919;-61
2022/12/03 10:34:35;;;;;;;14.60;8.88;;;;;;;2.61;65.35;102644.38;1775424;80;27485;-62
2022/12/03 10:37:20;;;;;;;18.62;10.53;;;;;;;2.64;65.84;102645.64;1766587;80;25809;-62
2022/12/03 10:40:10;;;;;;;24.18;10.80;;;;;;;2.68;66.22;102649.09;1757670;80;25904;-62
2022/12/03 10:42:40;;;;;;;21.62;11.08;;;;;;;2.71;66.50;102654.31;1758022;80;25792;-62
2022/12/03 10:45:22;;;;;;;22.95;10.13;;;;;;;2.74;66.39;102648.45;1767997;80;25860;-62
2022/12/03 10:48:15;;;;;;;22.65;10.35;;;;;;;2.78;66.39;102642.64;1775975;79;27970;-62
2022/12/03 10:51:05;;;;;;;17.15;9.80;;;;;;;2.75;65.94;102644.03;1768028;80;26206;-61
2022/12/03 10:53:37;;;;;;;25.10;10.85;;;;;;;2.76;65.85;102646.64;1766589;80;25806;-62
2022/12/03 10:56:07;;;;;;;22.10;11.80;;;;;;;2.74;65.04;102649.78;1777692;80;25808;-61
2022/12/03 10:58:38;;;;;;;27.90;12.93;;;;;;;2.74;65.44;102646.27;1742827;81;25754;-62
2022/12/03 11:01:15;;;;;;;23.67;12.37;;;;;;;2.76;65.51;102645.31;1761059;80;27104;-62
2022/12/03 11:03:43;;;;;;;19.40;11.40;;;;;;;2.77;65.78;102651.05;1766371;80;25719;-62
2022/12/03 11:06:16;;;;;;;20.43;11.03;;;;;;;2.78;65.81;102639.51;1789478;80;25765;-62
2022/12/03 11:08:47;;;;;;;25.90;11.73;;;;;;;2.84;65.79;102637.59;1791313;79;26504;-62
2022/12/03 11:11:29;;;;;;;26.37;11.73;;;;;;;2.91;65.63;102631.23;1795624;78;25765;-62
2022/12/03 11:14:02;;;;;;;23.92;12.28;;;;;;;2.92;64.78;102628.52;1786321;79;27684;-62
2022/12/03 11:16:49;;;;;;;20.32;10.65;;;;;;;2.94;65.12;102633.78;1793953;79;25773;-62
2022/12/03 11:19:20;;;;;;;20.40;10.82;;;;;;;2.99;65.32;102631.89;1770545;79;26092;-62
2022/12/03 11:22:10;;;;;;;17.67;11.28;;;;;;;3.03;65.11;102637.52;1783954;79;25800;-62
2022/12/03 11:24:39;;;;;;;20.85;11.57;;;;;;;3.01;64.97;102632.70;1760753;80;25750;-62
2022/12/03 11:27:11;;;;;;;18.45;9.88;;;;;;;2.97;64.94;102628.39;1753934;81;28174;-62
2022/12/03 11:29:55;;;;;;;19.65;9.43;;;;;;;2.95;64.92;102622.23;1780382;80;25831;-62
2022/12/03 11:32:46;;;;;;;16.90;10.40;;;;;;;2.91;64.62;102624.58;1789214;79;25788;-61
2022/12/03 11:35:39;;;;;;;17.62;9.68;;;;;;;2.80;64.62;102628.83;1793662;79;25871;-62
2022/12/03 11:38:44;;;;;;;23.85;9.10;;;;;;;2.71;64.90;102631.72;1765521;79;25979;-61
2022/12/03 11:41:18;;;;;;;22.32;10.98;;;;;;;2.68;65.18;102627.36;1767528;81;29668;-61
2022/12/03 11:43:59;;;;;;;18.10;8.78;;;;;;;2.70;65.64;102624.66;1797334;78;25679;-61
2022/12/03 11:46:43;;;;;;;16.25;9.35;;;;;;;2.76;65.54;102629.84;1785591;80;25914;-61
2022/12/03 11:49:38;;;;;;;21.35;10.28;;;;;;;2.84;65.83;102622.97;1767769;79;25947;-61
2022/12/03 11:52:19;;;;;;;27.22;13.35;;;;;;;2.82;65.82;102616.37;1793922;79;26003;-62
2022/12/03 11:54:51;;;;;;;26.87;12.82;;;;;;;2.80;65.78;102621.74;1792603;79;28411;-62
2022/12/03 11:57:35;;;;;;;27.98;13.22;;;;;;;2.79;65.96;102625.31;1800764;79;25910;-62